createdAt,value
2018-10-16T00:01:37.533Z,12.47
2018-10-16T00:04:06.886Z,11.83
2018-10-16T00:06:35.770Z,11.77
2018-10-16T00:09:06.923Z,12.80
2018-10-16T00:11:35.816Z,10.83
2018-10-16T00:14:04.742Z,12.57
2018-10-16T00:16:33.616Z,11.57
2018-10-16T00:19:02.483Z,12.33
2018-10-16T00:21:31.304Z,11.63
2018-10-16T00:24:00.195Z,12.17
2018-10-16T00:26:29.040Z,12.67
2018-10-16T00:28:57.968Z,12.40
2018-10-16T00:31:26.978Z,13.23
2018-10-16T00:33:55.859Z,12.90
2018-10-16T00:36:24.687Z,12.50
2018-10-16T00:38:53.553Z,12.00
2018-10-16T00:41:22.388Z,12.50
2018-10-16T00:43:51.238Z,12.87
2018-10-16T00:46:20.069Z,13.90
2018-10-16T00:48:48.902Z,13.07
2018-10-16T00:51:17.788Z,12.20
2018-10-16T00:53:46.606Z,12.93
2018-10-16T00:56:15.469Z,13.80
2018-10-16T00:58:44.313Z,11.97
2018-10-16T01:01:13.148Z,12.67
2018-10-16T01:03:42.039Z,13.93
2018-10-16T01:06:10.854Z,13.20
2018-10-16T01:08:39.716Z,13.57
2018-10-16T01:11:10.938Z,13.73
2018-10-16T01:13:40.145Z,12.77
2018-10-16T01:16:09.017Z,14.03
2018-10-16T01:18:37.815Z,13.77
2018-10-16T01:21:06.909Z,13.10
2018-10-16T01:23:35.765Z,13.27
2018-10-16T01:26:04.570Z,13.03
2018-10-16T01:28:33.457Z,12.40
2018-10-16T01:31:02.239Z,13.77
2018-10-16T01:33:31.106Z,14.30
2018-10-16T01:35:59.975Z,13.70
2018-10-16T01:38:28.876Z,13.53
2018-10-16T01:40:57.785Z,13.30
2018-10-16T01:43:26.749Z,12.70
2018-10-16T01:45:55.583Z,14.50
2018-10-16T01:48:24.447Z,13.50
2018-10-16T01:50:53.286Z,14.10
2018-10-16T01:53:22.159Z,13.07
2018-10-16T01:55:51.005Z,14.67
2018-10-16T01:58:19.832Z,14.37
2018-10-16T02:00:48.780Z,14.37
2018-10-16T02:03:17.596Z,14.27
2018-10-16T02:05:46.505Z,15.30
2018-10-16T02:08:15.407Z,14.13
2018-10-16T02:10:44.267Z,15.03
2018-10-16T02:13:13.062Z,14.30
2018-10-16T02:15:41.920Z,14.37
2018-10-16T02:18:10.836Z,14.27
2018-10-16T02:20:39.640Z,14.30
2018-10-16T02:23:08.492Z,16.00
2018-10-16T02:25:37.310Z,13.30
2018-10-16T02:28:06.242Z,14.77
2018-10-16T02:30:35.114Z,14.67
2018-10-16T02:33:04.039Z,14.87
2018-10-16T02:35:32.897Z,15.60
2018-10-16T02:38:01.787Z,15.17
2018-10-16T02:40:30.678Z,14.80
2018-10-16T02:42:59.542Z,15.77
2018-10-16T02:45:28.395Z,15.13
2018-10-16T02:47:57.221Z,15.73
2018-10-16T02:50:26.108Z,15.30
2018-10-16T02:52:54.961Z,15.87
2018-10-16T02:55:23.819Z,16.53
2018-10-16T02:57:52.688Z,14.97
2018-10-16T03:00:21.532Z,15.77
2018-10-16T03:02:50.332Z,15.47
2018-10-16T03:05:19.161Z,15.20
2018-10-16T03:07:48.049Z,15.70
2018-10-16T03:10:16.873Z,14.60
2018-10-16T03:12:45.755Z,15.10
2018-10-16T03:15:14.604Z,14.73
2018-10-16T03:17:43.456Z,16.00
2018-10-16T03:20:12.611Z,16.13
2018-10-16T03:22:41.781Z,15.47
2018-10-16T03:25:12.350Z,15.53
2018-10-16T03:27:41.727Z,14.83
2018-10-16T03:30:11.918Z,16.70
2018-10-16T03:32:41.176Z,16.07
2018-10-16T03:35:11.445Z,15.93
2018-10-16T03:37:41.458Z,15.43
2018-10-16T03:40:11.317Z,15.97
2018-10-16T03:42:41.142Z,16.03
2018-10-16T03:45:11.400Z,16.77
2018-10-16T03:47:40.783Z,17.50
2018-10-16T03:50:10.308Z,15.57
2018-10-16T03:52:39.055Z,15.33
2018-10-16T03:55:08.192Z,15.07
2018-10-16T03:57:37.458Z,16.57
2018-10-16T04:00:07.096Z,15.73
2018-10-16T04:02:35.965Z,15.63
2018-10-16T04:05:04.887Z,15.60
2018-10-16T04:07:33.685Z,16.10
2018-10-16T04:10:02.570Z,14.70
2018-10-16T04:12:31.383Z,16.23
2018-10-16T04:15:00.219Z,15.63
2018-10-16T04:17:29.118Z,16.57
2018-10-16T04:19:57.941Z,15.40
2018-10-16T04:22:26.839Z,17.33
2018-10-16T04:24:55.642Z,17.30
2018-10-16T04:27:24.500Z,16.13
2018-10-16T04:29:53.414Z,15.60
2018-10-16T04:32:22.242Z,14.73
2018-10-16T04:34:51.081Z,16.20
2018-10-16T04:37:19.957Z,16.00
2018-10-16T04:39:48.765Z,16.30
2018-10-16T04:42:17.646Z,16.27
2018-10-16T04:44:46.495Z,16.40
2018-10-16T04:47:15.335Z,16.87
2018-10-16T04:49:44.185Z,15.93
2018-10-16T04:52:12.977Z,17.70
2018-10-16T04:54:41.762Z,17.60
2018-10-16T04:57:10.607Z,16.40
2018-10-16T04:59:39.390Z,17.67
2018-10-16T05:02:08.256Z,17.23
2018-10-16T05:04:37.099Z,18.10
2018-10-16T05:07:05.986Z,17.93
2018-10-16T05:09:34.802Z,16.27
2018-10-16T05:12:03.731Z,18.53
2018-10-16T05:14:32.562Z,18.10
2018-10-16T05:17:01.385Z,17.20
2018-10-16T05:19:30.233Z,16.07
2018-10-16T05:21:59.072Z,15.23
2018-10-16T05:24:27.882Z,15.50
2018-10-16T05:26:56.802Z,17.50
2018-10-16T05:29:25.633Z,16.70
2018-10-16T05:31:54.488Z,16.10
2018-10-16T05:34:23.320Z,16.07
2018-10-16T05:36:52.204Z,16.07
2018-10-16T05:39:21.056Z,16.57
2018-10-16T05:41:49.909Z,15.13
2018-10-16T05:44:18.824Z,15.97
2018-10-16T05:46:47.602Z,15.20
2018-10-16T05:49:16.484Z,15.33
2018-10-16T05:51:45.248Z,15.47
2018-10-16T05:54:14.157Z,15.17
2018-10-16T05:56:43.021Z,16.23
2018-10-16T05:59:11.829Z,16.20
2018-10-16T06:01:40.769Z,17.23
2018-10-16T06:04:09.615Z,17.17
2018-10-16T06:06:38.471Z,17.70
2018-10-16T06:09:08.117Z,15.40
2018-10-16T06:11:37.027Z,15.93
2018-10-16T06:14:05.885Z,15.37
2018-10-16T06:16:34.723Z,17.13
2018-10-16T06:19:03.588Z,14.80
2018-10-16T06:21:32.495Z,14.77
2018-10-16T06:24:01.314Z,14.53
2018-10-16T06:26:30.235Z,15.57
2018-10-16T06:28:59.103Z,15.73
2018-10-16T06:31:27.995Z,14.87
2018-10-16T06:33:56.916Z,14.50
2018-10-16T06:36:25.833Z,14.60
2018-10-16T06:38:54.693Z,14.27
2018-10-16T06:41:23.679Z,15.17
2018-10-16T06:43:52.918Z,15.20
2018-10-16T06:46:22.034Z,16.13
2018-10-16T06:48:51.097Z,16.00
2018-10-16T06:51:19.861Z,13.30
2018-10-16T06:53:48.692Z,14.30
2018-10-16T06:56:17.694Z,16.33
2018-10-16T06:58:46.546Z,15.20
2018-10-16T07:01:15.445Z,13.93
2018-10-16T07:03:44.344Z,15.97
2018-10-16T07:06:13.289Z,15.03
2018-10-16T07:08:42.269Z,14.87
2018-10-16T07:14:10.479Z,14.80
2018-10-16T07:16:39.545Z,14.70
2018-10-16T07:19:09.618Z,14.37
2018-10-16T07:21:38.541Z,15.40
2018-10-16T07:24:08.359Z,14.80
2018-10-16T07:26:37.244Z,13.60
2018-10-16T07:29:07.275Z,15.17
2018-10-16T07:31:36.178Z,14.70
2018-10-16T07:34:05.250Z,15.10
2018-10-16T07:36:34.140Z,13.87
2018-10-16T07:39:03.812Z,13.37
2018-10-16T07:41:32.703Z,14.77
2018-10-16T07:44:01.547Z,15.03
2018-10-16T07:46:30.419Z,14.07
2018-10-16T07:48:59.337Z,15.13
2018-10-16T07:51:28.150Z,15.80
2018-10-16T07:53:57.059Z,15.60
2018-10-16T07:56:26.005Z,15.10
2018-10-16T07:58:54.911Z,14.27
2018-10-16T08:01:23.806Z,14.00
2018-10-16T08:03:52.700Z,14.27
2018-10-16T08:06:21.556Z,15.20
2018-10-16T08:08:50.500Z,13.90
2018-10-16T08:11:19.381Z,13.47
2018-10-16T08:13:48.299Z,12.30
2018-10-16T08:16:17.147Z,13.40
2018-10-16T08:18:46.045Z,14.10
2018-10-16T08:21:14.929Z,14.80
2018-10-16T08:23:43.926Z,12.83
2018-10-16T08:26:12.871Z,12.40
2018-10-16T08:28:41.753Z,12.07
2018-10-16T08:31:10.705Z,12.23
2018-10-16T08:33:39.622Z,10.80
2018-10-16T08:36:08.599Z,10.30
2018-10-16T08:38:48.510Z,11.13
2018-10-16T08:41:17.487Z,12.23
2018-10-16T08:43:57.425Z,11.10
2018-10-16T08:46:37.412Z,11.63
2018-10-16T08:49:17.403Z,10.93
2018-10-16T08:51:51.466Z,10.97
2018-10-16T08:54:20.431Z,11.00
2018-10-16T08:56:49.328Z,11.33
2018-10-16T08:59:18.198Z,11.03
2018-10-16T09:01:47.146Z,10.50
2018-10-16T09:04:16.095Z,9.70
2018-10-16T09:06:45.008Z,10.67
2018-10-16T09:09:16.439Z,9.93
2018-10-16T09:11:46.934Z,10.43
2018-10-16T09:14:17.181Z,11.33
2018-10-16T09:16:46.220Z,11.67
2018-10-16T09:19:15.082Z,10.90
2018-10-16T09:21:43.884Z,10.80
2018-10-16T09:24:12.849Z,10.03
2018-10-16T09:26:41.702Z,10.40
2018-10-16T09:29:10.538Z,9.77
2018-10-16T09:31:41.483Z,10.53
2018-10-16T09:34:10.348Z,10.70
2018-10-16T09:36:39.436Z,9.80
2018-10-16T09:39:10.843Z,9.33
2018-10-16T09:41:39.807Z,10.20
2018-10-16T09:44:08.799Z,10.80
2018-10-16T09:46:38.214Z,10.87
2018-10-16T09:49:07.271Z,11.10
2018-10-16T09:51:36.213Z,11.13
2018-10-16T09:54:05.206Z,10.40
2018-10-16T09:56:34.094Z,11.03
2018-10-16T09:59:02.991Z,11.17
2018-10-16T10:01:38.358Z,14.70
2018-10-16T10:04:07.379Z,12.97
2018-10-16T10:06:36.224Z,15.37
2018-10-16T10:09:09.003Z,13.53
2018-10-16T10:11:38.006Z,13.43
2018-10-16T10:14:07.447Z,12.80
2018-10-16T10:16:36.461Z,13.27
2018-10-16T10:19:05.580Z,12.00
2018-10-16T10:21:34.489Z,13.40
2018-10-16T10:24:03.385Z,10.57
2018-10-16T10:26:33.630Z,10.53
2018-10-16T10:29:02.498Z,9.43
2018-10-16T10:31:31.357Z,10.67
2018-10-16T10:34:00.340Z,8.93
2018-10-16T10:36:29.199Z,10.87
2018-10-16T10:38:58.083Z,10.10
2018-10-16T10:41:27.332Z,10.00
2018-10-16T10:43:56.448Z,10.10
2018-10-16T10:46:26.957Z,10.53
2018-10-16T10:48:55.829Z,9.90
2018-10-16T10:51:25.040Z,10.20
2018-10-16T10:53:53.790Z,9.40
2018-10-16T10:56:22.823Z,9.53
2018-10-16T10:58:51.634Z,9.73
2018-10-16T11:01:20.480Z,9.70
2018-10-16T11:03:49.607Z,10.10
2018-10-16T11:06:18.516Z,9.67
2018-10-16T11:08:47.444Z,8.93
2018-10-16T11:11:16.471Z,10.93
2018-10-16T11:13:45.313Z,9.80
2018-10-16T11:16:14.179Z,10.03
2018-10-16T11:18:43.120Z,10.43
2018-10-16T11:21:12.609Z,9.40
2018-10-16T11:23:41.489Z,9.90
2018-10-16T11:26:10.379Z,8.93
2018-10-16T11:28:39.463Z,9.57
2018-10-16T11:31:08.443Z,9.07
2018-10-16T11:33:37.359Z,10.27
2018-10-16T11:36:06.360Z,9.60
2018-10-16T11:38:35.917Z,9.33
2018-10-16T11:41:04.965Z,8.27
2018-10-16T11:43:33.860Z,9.47
2018-10-16T11:46:02.800Z,9.23
2018-10-16T11:48:31.955Z,8.70
2018-10-16T11:51:00.997Z,8.77
2018-10-16T11:53:31.987Z,9.33
2018-10-16T11:56:00.878Z,9.43
2018-10-16T11:58:30.252Z,9.13
2018-10-16T12:00:59.501Z,8.70
2018-10-16T12:03:28.569Z,8.70
2018-10-16T12:05:57.452Z,9.10
2018-10-16T12:08:26.444Z,10.07
2018-10-16T12:10:55.555Z,9.50
2018-10-16T12:13:24.447Z,9.23
2018-10-16T12:15:53.731Z,8.73
2018-10-16T12:18:29.633Z,8.30
2018-10-16T12:21:06.499Z,9.03
2018-10-16T12:23:35.532Z,8.70
2018-10-16T12:26:04.534Z,9.30
2018-10-16T12:28:33.473Z,9.03
2018-10-16T12:31:02.396Z,8.90
2018-10-16T12:33:31.357Z,9.13
2018-10-16T12:36:00.267Z,9.73
2018-10-16T12:38:29.246Z,8.77
2018-10-16T12:40:58.184Z,10.17
2018-10-16T12:43:27.285Z,9.97
2018-10-16T12:45:57.007Z,8.27
2018-10-16T12:48:25.913Z,9.80
2018-10-16T12:50:54.882Z,8.87
2018-10-16T12:53:23.790Z,8.53
2018-10-16T12:55:52.839Z,8.10
2018-10-16T12:58:21.871Z,9.37
2018-10-16T13:00:50.824Z,8.63
2018-10-16T13:03:19.712Z,8.50
2018-10-16T13:05:48.621Z,8.60
2018-10-16T13:08:17.480Z,9.27
2018-10-16T13:10:46.303Z,9.17
2018-10-16T13:13:15.729Z,9.03
2018-10-16T13:15:44.692Z,9.43
2018-10-16T13:18:15.894Z,8.77
2018-10-16T13:20:44.842Z,9.30
2018-10-16T13:23:15.462Z,9.10
2018-10-16T13:25:45.617Z,9.23
2018-10-16T13:28:15.033Z,9.47
2018-10-16T13:30:45.243Z,8.20
2018-10-16T13:33:14.723Z,8.03
2018-10-16T13:35:43.823Z,8.60
2018-10-16T13:38:12.748Z,8.60
2018-10-16T13:40:41.619Z,9.97
2018-10-16T13:43:10.569Z,8.43
2018-10-16T13:45:39.491Z,8.73
2018-10-16T13:48:08.408Z,9.77
2018-10-16T13:50:37.283Z,9.23
2018-10-16T13:53:06.264Z,8.77
2018-10-16T13:55:35.232Z,8.37
2018-10-16T13:58:04.297Z,9.20
2018-10-16T14:00:33.063Z,8.53
2018-10-16T14:03:02.943Z,9.40
2018-10-16T14:05:31.870Z,9.40
2018-10-16T14:08:00.794Z,8.90
2018-10-16T14:10:29.628Z,8.97
2018-10-16T14:12:58.703Z,9.07
2018-10-16T14:15:27.584Z,9.40
2018-10-16T14:17:56.627Z,8.20
2018-10-16T14:20:25.491Z,9.20
2018-10-16T14:22:54.360Z,9.67
2018-10-16T14:25:23.282Z,9.40
2018-10-16T14:27:52.166Z,9.67
2018-10-16T14:30:21.099Z,10.00
2018-10-16T14:32:50.974Z,8.60
2018-10-16T14:35:19.928Z,9.03
2018-10-16T14:37:49.082Z,8.90
2018-10-16T14:40:18.081Z,9.60
2018-10-16T14:42:47.051Z,9.33
2018-10-16T14:45:15.966Z,9.90
2018-10-16T14:47:44.885Z,9.40
2018-10-16T14:50:14.530Z,10.37
2018-10-16T14:52:43.756Z,10.90
2018-10-16T14:55:12.683Z,10.37
2018-10-16T14:57:41.753Z,9.50
2018-10-16T15:00:12.031Z,10.23
2018-10-16T15:02:40.968Z,11.33
2018-10-16T15:05:12.116Z,11.93
2018-10-16T15:07:41.204Z,12.63
2018-10-16T15:10:13.020Z,11.80
2018-10-16T15:12:41.956Z,12.20
2018-10-16T15:15:11.040Z,12.53
2018-10-16T15:17:40.182Z,11.63
2018-10-16T15:20:10.398Z,10.50
2018-10-16T15:22:39.293Z,10.83
2018-10-16T15:25:09.213Z,11.43
2018-10-16T15:27:38.179Z,10.83
2018-10-16T15:30:08.632Z,9.87
2018-10-16T15:32:37.636Z,10.57
2018-10-16T15:35:08.921Z,11.10
2018-10-16T15:37:38.164Z,10.20
2018-10-16T15:40:08.920Z,10.47
2018-10-16T15:42:37.795Z,10.60
2018-10-16T15:45:08.393Z,11.17
2018-10-16T15:47:37.420Z,10.73
2018-10-16T15:50:07.310Z,10.70
2018-10-16T15:52:36.236Z,10.40
2018-10-16T15:55:05.802Z,11.17
2018-10-16T15:57:34.806Z,10.43
2018-10-16T16:00:03.795Z,11.30
2018-10-16T16:02:32.780Z,11.07
2018-10-16T16:05:01.817Z,11.93
2018-10-16T16:07:30.680Z,13.00
2018-10-16T16:09:59.571Z,11.17
2018-10-16T16:12:28.539Z,10.90
2018-10-16T16:14:57.569Z,10.30
2018-10-16T16:17:26.453Z,11.53
2018-10-16T16:19:55.351Z,11.33
2018-10-16T16:22:24.214Z,11.83
2018-10-16T16:24:53.091Z,10.57
2018-10-16T16:27:21.897Z,12.67
2018-10-16T16:29:50.835Z,12.77
2018-10-16T16:32:19.730Z,11.93
2018-10-16T16:34:49.126Z,10.53
2018-10-16T16:37:18.017Z,10.80
2018-10-16T16:39:46.952Z,10.60
2018-10-16T16:42:15.881Z,11.90
2018-10-16T16:44:44.743Z,10.40
2018-10-16T16:47:13.743Z,11.77
2018-10-16T16:49:42.591Z,11.10
2018-10-16T16:52:11.557Z,14.27
2018-10-16T16:54:40.433Z,11.53
2018-10-16T16:57:09.336Z,11.60
2018-10-16T16:59:38.174Z,11.23
2018-10-16T17:02:07.136Z,11.67
2018-10-16T17:04:36.076Z,11.07
2018-10-16T17:07:04.987Z,11.87
2018-10-16T17:09:33.808Z,11.40
2018-10-16T17:12:02.695Z,13.47
2018-10-16T17:14:31.526Z,12.97
2018-10-16T17:17:00.434Z,13.23
2018-10-16T17:19:29.302Z,12.97
2018-10-16T17:21:58.237Z,11.67
2018-10-16T17:24:27.123Z,11.93
2018-10-16T17:26:56.001Z,12.10
2018-10-16T17:29:24.799Z,12.07
2018-10-16T17:31:53.682Z,12.03
2018-10-16T17:34:22.482Z,13.00
2018-10-16T17:36:57.655Z,13.13
2018-10-16T17:39:27.089Z,12.57
2018-10-16T17:41:56.028Z,13.90
2018-10-16T17:44:26.309Z,15.30
2018-10-16T17:46:55.783Z,13.40
2018-10-16T17:49:25.709Z,15.73
2018-10-16T17:51:54.611Z,15.40
2018-10-16T17:54:23.499Z,16.27
2018-10-16T17:56:52.392Z,16.97
2018-10-16T17:59:21.252Z,16.50
2018-10-16T18:01:50.598Z,15.77
2018-10-16T18:04:19.463Z,17.03
2018-10-16T18:06:48.312Z,19.03
2018-10-16T18:09:17.205Z,18.40
2018-10-16T18:11:46.049Z,19.07
2018-10-16T18:14:14.950Z,18.20
2018-10-16T18:16:43.796Z,18.33
2018-10-16T18:19:12.669Z,18.47
2018-10-16T18:21:41.545Z,20.23
2018-10-16T18:24:10.420Z,18.10
2018-10-16T18:26:40.766Z,18.50
2018-10-16T18:29:09.706Z,17.53
2018-10-16T18:31:38.939Z,18.17
2018-10-16T18:34:07.980Z,17.90
2018-10-16T18:36:37.446Z,17.57
2018-10-16T18:39:07.881Z,17.70
2018-10-16T18:41:37.039Z,17.93
2018-10-16T18:44:06.070Z,16.83
2018-10-16T18:46:36.023Z,17.33
2018-10-16T18:49:04.991Z,18.83
2018-10-16T18:51:33.880Z,17.17
2018-10-16T18:54:02.883Z,17.50
2018-10-16T18:56:31.950Z,18.17
2018-10-16T18:59:01.178Z,16.40
2018-10-16T19:01:30.700Z,17.13
2018-10-16T19:03:59.637Z,16.57
2018-10-16T19:06:28.542Z,15.83
2018-10-16T19:08:57.503Z,15.73
2018-10-16T19:11:27.525Z,15.73
2018-10-16T19:13:57.205Z,15.10
2018-10-16T19:16:26.152Z,13.80
2018-10-16T19:18:55.129Z,14.87
2018-10-16T19:21:24.004Z,14.03
2018-10-16T19:23:53.426Z,13.73
2018-10-16T19:26:22.775Z,14.00
2018-10-16T19:28:51.714Z,12.93
2018-10-16T19:31:21.552Z,13.80
2018-10-16T19:33:50.498Z,13.67
2018-10-16T19:36:19.460Z,13.80
2018-10-16T19:38:48.446Z,14.83
2018-10-16T19:41:17.382Z,15.80
2018-10-16T19:43:48.233Z,15.30
2018-10-16T19:46:17.183Z,16.03
2018-10-16T19:48:46.277Z,16.33
2018-10-16T19:51:15.364Z,16.80
2018-10-16T19:53:44.312Z,30.50
2018-10-16T19:56:13.368Z,15.40
2018-10-16T19:58:42.297Z,16.43
2018-10-16T20:01:12.212Z,17.03
2018-10-16T20:03:41.218Z,15.77
2018-10-16T20:06:10.125Z,16.67
2018-10-16T20:08:39.034Z,16.40
2018-10-16T20:11:07.952Z,15.70
2018-10-16T20:13:36.759Z,14.70
2018-10-16T20:16:05.796Z,15.73
2018-10-16T20:18:34.681Z,15.67
2018-10-16T20:21:03.607Z,14.17
2018-10-16T20:23:33.161Z,15.70
2018-10-16T20:26:02.433Z,15.80
2018-10-16T20:28:31.417Z,16.50
2018-10-16T20:31:00.889Z,15.20
2018-10-16T20:33:29.757Z,15.13
2018-10-16T20:35:58.650Z,15.33
2018-10-16T20:38:28.080Z,15.57
2018-10-16T20:40:56.978Z,16.17
2018-10-16T20:43:25.939Z,15.67
2018-10-16T20:45:54.818Z,14.87
2018-10-16T20:48:23.781Z,15.83
2018-10-16T20:50:52.572Z,16.13
2018-10-16T20:53:21.511Z,18.03
2018-10-16T20:55:50.356Z,19.00
2018-10-16T20:58:19.256Z,17.93
2018-10-16T21:00:48.478Z,16.40
2018-10-16T21:03:17.933Z,17.97
2018-10-16T21:05:47.039Z,17.20
2018-10-16T21:08:15.911Z,17.23
2018-10-16T21:10:44.868Z,21.57
2018-10-16T21:13:13.800Z,23.27
2018-10-16T21:15:42.641Z,26.10
2018-10-16T21:18:11.588Z,24.63
2018-10-16T21:20:40.427Z,25.13
2018-10-16T21:23:09.346Z,25.90
2018-10-16T21:25:38.212Z,25.53
2018-10-16T21:28:07.143Z,27.50
2018-10-16T21:30:36.087Z,27.80
2018-10-16T21:33:05.216Z,27.30
2018-10-16T21:35:34.101Z,26.73
2018-10-16T21:38:03.008Z,27.23
2018-10-16T21:40:31.850Z,26.50
2018-10-16T21:43:00.719Z,28.00
2018-10-16T21:45:29.840Z,28.73
2018-10-16T21:47:58.654Z,26.43
2018-10-16T21:50:27.507Z,25.40
2018-10-16T21:52:56.414Z,28.47
2018-10-16T21:55:25.406Z,26.57
2018-10-16T21:57:54.294Z,27.87
2018-10-16T22:00:28.267Z,34.23
2018-10-16T22:02:57.930Z,25.90
2018-10-16T22:05:26.934Z,26.50
2018-10-16T22:07:56.918Z,26.60
2018-10-16T22:10:25.854Z,29.47
2018-10-16T22:12:54.695Z,27.97
2018-10-16T22:15:23.726Z,27.83
2018-10-16T22:17:52.579Z,26.90
2018-10-16T22:20:21.430Z,25.43
2018-10-16T22:22:50.325Z,24.93
2018-10-16T22:25:19.179Z,25.47
2018-10-16T22:27:48.072Z,24.07
2018-10-16T22:30:16.928Z,25.47
2018-10-16T22:32:45.794Z,26.80
2018-10-16T22:35:14.769Z,27.33
2018-10-16T22:37:43.515Z,26.63
2018-10-16T22:40:12.424Z,27.53
2018-10-16T22:42:41.313Z,26.03
2018-10-16T22:45:10.306Z,27.03
2018-10-16T22:47:39.145Z,25.70
2018-10-16T22:50:10.337Z,28.30
2018-10-16T22:52:39.200Z,27.37
2018-10-16T22:55:08.785Z,26.87
2018-10-16T22:57:37.947Z,26.00
2018-10-16T23:00:09.427Z,26.07
2018-10-16T23:02:38.248Z,26.73
2018-10-16T23:05:07.201Z,25.43
2018-10-16T23:07:36.138Z,26.53
2018-10-16T23:10:05.227Z,24.73
2018-10-16T23:12:34.144Z,24.73
2018-10-16T23:15:02.984Z,25.80
2018-10-16T23:17:31.847Z,26.53
2018-10-16T23:20:00.675Z,25.30
2018-10-16T23:22:29.586Z,27.07
2018-10-16T23:24:58.506Z,23.73
2018-10-16T23:27:29.352Z,26.63
2018-10-16T23:29:58.243Z,24.80
2018-10-16T23:32:27.030Z,24.63
2018-10-16T23:34:55.971Z,25.80
2018-10-16T23:37:24.813Z,26.47
2018-10-16T23:39:53.682Z,25.87
2018-10-16T23:42:22.515Z,26.07
2018-10-16T23:44:51.459Z,25.33
2018-10-16T23:47:20.274Z,25.33
2018-10-16T23:49:49.161Z,25.70
2018-10-16T23:52:17.997Z,26.00
2018-10-16T23:54:46.794Z,25.33
2018-10-16T23:57:15.696Z,24.00
2018-10-16T23:59:44.510Z,24.97
